Butler, Oklahoma
Current Conditions -  °F | °C
As of 9:15 PM on Friday 21 Nov 2014 (Local Time) from KCLK Reporting Station
Haze Haze  
Wind Chill:   Ceiling: 4100
Heat Index:   Visibility: 5mi
Dew Point:   Wind: 0mph
Humidity: 93%   Direction: NA
Pressure: 30.06"   Gusts: NA
Location:  35.64°N, 99.19°W
Report Text: KCLK 220315Z AUTO 00000KT 5SM BR BKN041 BKN070 03/02 A3006 RMK AO2
Loading
Personal Weather Stations






























Interactive Weather Map New forecast layout! Learn more

10-Day Weather Forecast

Advertisements
Track Severe Weather on mobile